createdAt,value
2018-07-17T00:00:51.470Z,99.90
2018-07-17T00:03:20.269Z,99.90
2018-07-17T00:05:49.071Z,99.90
2018-07-17T00:08:17.854Z,99.90
2018-07-17T00:10:46.722Z,99.90
2018-07-17T00:13:15.557Z,99.90
2018-07-17T00:18:12.636Z,99.90
2018-07-17T00:20:41.372Z,99.90
2018-07-17T00:23:10.116Z,99.90
2018-07-17T00:25:38.861Z,99.90
2018-07-17T00:28:07.605Z,99.90
2018-07-17T00:30:36.362Z,99.90
2018-07-17T00:33:05.104Z,99.90
2018-07-17T00:35:33.935Z,99.90
2018-07-17T00:38:02.916Z,99.90
2018-07-17T00:40:31.691Z,99.90
2018-07-17T00:43:00.434Z,99.90
2018-07-17T00:45:29.253Z,99.90
2018-07-17T00:47:57.967Z,99.90
2018-07-17T00:50:26.696Z,99.90
2018-07-17T00:52:55.443Z,99.90
2018-07-17T00:55:24.184Z,99.90
2018-07-17T00:57:52.991Z,99.90
2018-07-17T01:00:25.935Z,99.90
2018-07-17T01:02:59.899Z,99.90
2018-07-17T01:05:33.731Z,99.90
2018-07-17T01:08:07.667Z,99.90
2018-07-17T01:10:41.507Z,99.90
2018-07-17T01:13:14.390Z,99.90
2018-07-17T01:15:43.146Z,99.90
2018-07-17T01:18:11.895Z,99.90
2018-07-17T01:20:40.627Z,99.90
2018-07-17T01:23:09.367Z,99.90
2018-07-17T01:25:38.089Z,99.90
2018-07-17T01:28:06.836Z,99.90
2018-07-17T01:30:35.557Z,99.90
2018-07-17T01:33:04.300Z,99.90
2018-07-17T01:38:01.398Z,99.90
2018-07-17T01:40:30.126Z,99.90
2018-07-17T01:42:58.862Z,99.90
2018-07-17T01:45:27.589Z,99.90
2018-07-17T01:47:56.320Z,99.90
2018-07-17T01:50:25.036Z,99.90
2018-07-17T01:52:53.759Z,99.90
2018-07-17T01:55:22.499Z,99.90
2018-07-17T01:57:51.412Z,99.90
2018-07-17T02:00:20.186Z,99.90
2018-07-17T02:02:48.979Z,99.90
2018-07-17T02:05:17.735Z,99.90
2018-07-17T02:07:46.552Z,99.90
2018-07-17T02:10:15.311Z,99.90
2018-07-17T02:12:44.030Z,99.90
2018-07-17T02:15:12.775Z,99.90
2018-07-17T02:17:41.511Z,99.90
2018-07-17T02:20:10.475Z,99.90
2018-07-17T02:22:39.215Z,99.90
2018-07-17T02:25:07.947Z,99.90
2018-07-17T02:27:36.671Z,99.90
2018-07-17T02:30:06.099Z,99.90
2018-07-17T02:35:03.193Z,99.90
2018-07-17T02:37:31.935Z,99.90
2018-07-17T02:40:00.688Z,99.90
2018-07-17T02:42:29.539Z,99.90
2018-07-17T02:44:58.188Z,99.90
2018-07-17T02:47:26.947Z,99.90
2018-07-17T02:49:55.617Z,99.90
2018-07-17T02:52:24.348Z,99.90
2018-07-17T02:54:53.104Z,99.90
2018-07-17T02:57:21.827Z,99.90
2018-07-17T02:59:50.643Z,99.90
2018-07-17T03:02:19.371Z,99.90
2018-07-17T03:04:48.126Z,99.90
2018-07-17T03:07:16.830Z,99.90
2018-07-17T03:09:45.576Z,99.90
2018-07-17T03:12:14.303Z,99.90
2018-07-17T03:14:43.063Z,99.90
2018-07-17T03:17:11.820Z,99.90
2018-07-17T03:19:40.639Z,99.90
2018-07-17T03:22:09.376Z,99.90
2018-07-17T03:24:38.113Z,99.90
2018-07-17T03:27:07.216Z,99.90
2018-07-17T03:29:36.047Z,99.90
2018-07-17T03:32:04.820Z,99.90
2018-07-17T03:34:33.539Z,99.90
2018-07-17T03:37:02.294Z,99.90
2018-07-17T03:39:30.998Z,99.90
2018-07-17T03:41:59.684Z,99.90
2018-07-17T03:44:28.415Z,99.90
2018-07-17T03:46:57.155Z,99.90
2018-07-17T03:49:25.831Z,99.90
2018-07-17T03:51:54.575Z,99.90
2018-07-17T03:54:23.320Z,99.90
2018-07-17T03:56:52.116Z,99.90
2018-07-17T03:59:20.887Z,99.90
2018-07-17T04:01:49.635Z,99.90
2018-07-17T04:04:18.486Z,99.90
2018-07-17T04:09:15.568Z,99.90
2018-07-17T04:11:44.292Z,99.90
2018-07-17T04:14:13.047Z,99.90
2018-07-17T04:16:53.380Z,99.90
2018-07-17T04:19:22.431Z,99.90
2018-07-17T04:21:51.760Z,99.90
2018-07-17T04:24:21.743Z,99.90
2018-07-17T04:26:50.507Z,99.90
2018-07-17T04:29:19.255Z,99.90
2018-07-17T04:31:48.003Z,99.90
2018-07-17T04:34:16.783Z,99.90
2018-07-17T04:36:45.532Z,99.90
2018-07-17T04:39:14.601Z,99.90
2018-07-17T04:41:43.403Z,99.90
2018-07-17T04:44:12.237Z,99.90
2018-07-17T04:46:40.993Z,99.90
2018-07-17T04:49:09.775Z,99.90
2018-07-17T04:51:38.515Z,99.90
2018-07-17T04:54:07.291Z,99.90
2018-07-17T04:56:36.053Z,99.90
2018-07-17T04:59:04.808Z,99.90
2018-07-17T05:04:01.965Z,99.90
2018-07-17T05:06:30.691Z,99.90
2018-07-17T05:08:59.454Z,99.90
2018-07-17T05:11:28.186Z,99.90
2018-07-17T05:13:56.968Z,99.90
2018-07-17T05:16:25.725Z,99.90
2018-07-17T05:18:54.448Z,99.90
2018-07-17T05:21:23.282Z,99.90
2018-07-17T05:23:52.072Z,99.90
2018-07-17T05:26:20.882Z,99.90
2018-07-17T05:28:49.593Z,99.90
2018-07-17T05:31:18.388Z,99.90
2018-07-17T05:33:47.140Z,99.90
2018-07-17T05:36:15.879Z,99.90
2018-07-17T05:38:44.660Z,99.90
2018-07-17T05:41:13.415Z,99.90
2018-07-17T05:43:42.148Z,99.90
2018-07-17T05:46:10.915Z,99.90
2018-07-17T05:48:39.679Z,99.90
2018-07-17T05:51:08.492Z,99.90
2018-07-17T05:53:37.280Z,99.90
2018-07-17T05:56:06.020Z,99.90
2018-07-17T05:58:34.782Z,99.90
2018-07-17T06:01:03.555Z,99.90
2018-07-17T06:03:32.324Z,99.90
2018-07-17T06:06:01.114Z,99.90
2018-07-17T06:08:29.844Z,99.90
2018-07-17T06:10:58.615Z,99.90
2018-07-17T06:13:27.359Z,99.90
2018-07-17T06:15:56.119Z,99.90
2018-07-17T06:18:24.897Z,99.90
2018-07-17T06:20:53.628Z,99.90
2018-07-17T06:23:22.439Z,99.90
2018-07-17T06:25:51.223Z,99.90
2018-07-17T06:28:20.252Z,99.90
2018-07-17T06:30:48.985Z,99.90
2018-07-17T06:33:17.739Z,99.90
2018-07-17T06:35:46.499Z,99.90
2018-07-17T06:38:15.259Z,99.90
2018-07-17T06:40:44.293Z,99.40
2018-07-17T06:43:13.083Z,98.20
2018-07-17T06:45:41.863Z,98.20
2018-07-17T06:48:10.607Z,99.10
2018-07-17T06:50:39.422Z,99.90
2018-07-17T06:53:08.607Z,99.90
2018-07-17T06:55:37.351Z,99.90
2018-07-17T06:58:06.439Z,99.90
2018-07-17T07:00:35.364Z,99.90
2018-07-17T07:03:04.103Z,99.90
2018-07-17T07:05:32.781Z,99.90
2018-07-17T07:08:01.803Z,99.90
2018-07-17T07:10:30.567Z,99.90
2018-07-17T07:12:59.291Z,98.90
2018-07-17T07:15:28.044Z,96.60
2018-07-17T07:17:56.781Z,95.00
2018-07-17T07:20:25.527Z,94.10
2018-07-17T07:22:54.227Z,93.60
2018-07-17T07:25:23.013Z,92.80
2018-07-17T07:27:51.812Z,92.40
2018-07-17T07:30:20.553Z,91.00
2018-07-17T07:32:49.283Z,90.20
2018-07-17T07:35:18.032Z,88.60
2018-07-17T07:37:46.771Z,87.70
2018-07-17T07:40:15.859Z,86.90
2018-07-17T07:42:44.599Z,85.60
2018-07-17T07:45:13.371Z,84.10
2018-07-17T07:47:42.196Z,82.90
2018-07-17T07:50:10.967Z,82.60
2018-07-17T07:52:39.675Z,80.10
2018-07-17T07:55:08.516Z,81.20
2018-07-17T07:57:37.279Z,80.90
2018-07-17T08:00:06.367Z,80.50
2018-07-17T08:02:35.143Z,79.40
2018-07-17T08:05:03.912Z,77.80
2018-07-17T08:07:32.940Z,76.80
2018-07-17T08:10:01.676Z,76.80
2018-07-17T08:12:30.780Z,76.60
2018-07-17T08:14:59.545Z,76.90
2018-07-17T08:17:28.280Z,76.70
2018-07-17T08:19:57.084Z,76.80
2018-07-17T08:22:25.834Z,76.10
2018-07-17T08:24:54.610Z,75.60
2018-07-17T08:27:23.336Z,74.90
2018-07-17T08:29:52.230Z,74.70
2018-07-17T08:32:20.963Z,74.80
2018-07-17T08:34:49.711Z,75.10
2018-07-17T08:37:18.457Z,72.70
2018-07-17T08:39:47.224Z,71.90
2018-07-17T08:42:15.955Z,71.80
2018-07-17T08:44:44.666Z,70.30
2018-07-17T08:47:13.471Z,69.80
2018-07-17T08:49:42.586Z,67.60
2018-07-17T08:52:11.311Z,68.40
2018-07-17T08:54:40.267Z,67.80
2018-07-17T08:57:08.920Z,68.60
2018-07-17T08:59:37.646Z,69.00
2018-07-17T09:02:06.900Z,67.40
2018-07-17T09:04:35.639Z,67.60
2018-07-17T09:07:04.479Z,66.70
2018-07-17T09:09:33.215Z,66.30
2018-07-17T09:12:01.983Z,65.60
2018-07-17T09:14:31.032Z,65.30
2018-07-17T09:16:59.829Z,64.90
2018-07-17T09:19:28.580Z,63.70
2018-07-17T09:21:57.352Z,63.60
2018-07-17T09:24:29.127Z,65.10
2018-07-17T09:26:57.879Z,63.40
2018-07-17T09:29:26.970Z,62.00
2018-07-17T09:31:55.799Z,61.30
2018-07-17T09:34:24.672Z,60.30
2018-07-17T09:36:53.433Z,60.90
2018-07-17T09:39:22.126Z,60.90
2018-07-17T09:41:50.927Z,61.80
2018-07-17T09:44:19.966Z,61.90
2018-07-17T09:46:48.691Z,62.10
2018-07-17T09:49:17.463Z,62.50
2018-07-17T09:51:46.539Z,62.40
2018-07-17T09:54:15.328Z,60.90
2018-07-17T09:56:44.109Z,59.90
2018-07-17T09:59:12.860Z,60.10
2018-07-17T10:01:46.912Z,59.40
2018-07-17T10:04:15.702Z,59.10
2018-07-17T10:06:44.543Z,59.30
2018-07-17T10:09:13.355Z,59.90
2018-07-17T10:11:42.167Z,58.80
2018-07-17T10:14:10.971Z,57.80
2018-07-17T10:16:39.820Z,57.20
2018-07-17T10:19:08.674Z,55.20
2018-07-17T10:21:37.478Z,54.50
2018-07-17T10:24:06.290Z,54.10
2018-07-17T10:26:35.144Z,52.90
2018-07-17T10:29:03.952Z,52.40
2018-07-17T10:31:32.769Z,52.90
2018-07-17T10:34:01.592Z,53.10
2018-07-17T10:36:30.450Z,52.90
2018-07-17T10:38:59.249Z,54.40
2018-07-17T10:41:28.045Z,53.30
2018-07-17T10:43:56.889Z,53.10
2018-07-17T10:46:26.182Z,53.80
2018-07-17T10:48:55.000Z,53.90
2018-07-17T10:51:23.811Z,52.80
2018-07-17T10:53:52.637Z,53.00
2018-07-17T10:56:21.509Z,52.60
2018-07-17T10:58:50.331Z,52.80
2018-07-17T11:01:19.175Z,52.20
2018-07-17T11:03:48.027Z,51.80
2018-07-17T11:06:16.854Z,52.10
2018-07-17T11:08:45.667Z,49.60
2018-07-17T11:11:14.526Z,49.40
2018-07-17T11:13:43.318Z,49.30
2018-07-17T11:16:12.133Z,48.40
2018-07-17T11:18:40.912Z,48.60
2018-07-17T11:21:09.765Z,47.50
2018-07-17T11:23:38.594Z,47.00
2018-07-17T11:26:07.453Z,47.40
2018-07-17T11:28:36.275Z,46.30
2018-07-17T11:31:05.074Z,47.10
2018-07-17T11:33:33.874Z,46.80
2018-07-17T11:36:02.703Z,47.20
2018-07-17T11:38:31.534Z,49.00
2018-07-17T11:41:00.334Z,49.80
2018-07-17T11:43:29.146Z,49.10
2018-07-17T11:45:57.966Z,50.90
2018-07-17T11:48:26.790Z,51.90
2018-07-17T11:50:55.622Z,52.10
2018-07-17T11:53:24.493Z,52.00
2018-07-17T11:55:53.335Z,52.20
2018-07-17T11:58:22.130Z,52.80
2018-07-17T12:00:51.250Z,53.70
2018-07-17T12:03:20.148Z,53.20
2018-07-17T12:05:49.026Z,53.50
2018-07-17T12:08:17.816Z,53.60
2018-07-17T12:10:46.610Z,53.80
2018-07-17T12:13:15.410Z,53.00
2018-07-17T12:15:44.211Z,54.10
2018-07-17T12:18:12.990Z,54.60
2018-07-17T12:20:41.780Z,54.60
2018-07-17T12:23:10.607Z,55.20
2018-07-17T12:25:39.405Z,54.20
2018-07-17T12:28:08.650Z,53.80
2018-07-17T12:30:37.375Z,52.10
2018-07-17T12:33:06.170Z,45.60
2018-07-17T12:35:34.938Z,47.30
2018-07-17T12:38:03.791Z,47.10
2018-07-17T12:40:32.594Z,47.40
2018-07-17T12:43:01.390Z,46.50
2018-07-17T12:45:30.176Z,44.90
2018-07-17T12:47:59.101Z,45.70
2018-07-17T12:50:27.862Z,45.80
2018-07-17T12:52:56.600Z,44.90
2018-07-17T12:55:25.545Z,45.80
2018-07-17T12:57:54.316Z,46.40
2018-07-17T13:00:23.079Z,47.50
2018-07-17T13:02:51.890Z,47.90
2018-07-17T13:05:20.587Z,47.10
2018-07-17T13:07:49.339Z,46.10
2018-07-17T13:10:18.088Z,45.40
2018-07-17T13:12:46.820Z,45.10
2018-07-17T13:15:15.627Z,45.20
2018-07-17T13:17:44.387Z,44.00
2018-07-17T13:20:13.127Z,45.10
2018-07-17T13:22:41.916Z,45.10
2018-07-17T13:25:10.741Z,44.20
2018-07-17T13:27:39.454Z,43.40
2018-07-17T13:30:08.588Z,44.50
2018-07-17T13:32:37.419Z,45.20
2018-07-17T13:35:06.201Z,45.20
2018-07-17T13:37:35.261Z,46.50
2018-07-17T13:40:04.150Z,45.90
2018-07-17T13:42:32.912Z,44.80
2018-07-17T13:45:01.673Z,44.60
2018-07-17T13:47:30.474Z,45.20
2018-07-17T13:49:59.298Z,46.70
2018-07-17T13:52:28.057Z,46.70
2018-07-17T13:54:56.863Z,47.30
2018-07-17T13:57:25.717Z,47.80
2018-07-17T13:59:54.509Z,48.10
2018-07-17T14:02:23.193Z,47.70
2018-07-17T14:04:51.932Z,47.70
2018-07-17T14:07:20.679Z,47.80
2018-07-17T14:09:49.401Z,48.10
2018-07-17T14:12:18.188Z,48.00
2018-07-17T14:14:46.891Z,49.00
2018-07-17T14:17:15.644Z,48.60
2018-07-17T14:19:44.431Z,48.40
2018-07-17T14:22:13.191Z,46.90
2018-07-17T14:24:41.939Z,46.90
2018-07-17T14:27:10.672Z,47.10
2018-07-17T14:29:39.423Z,47.30
2018-07-17T14:32:08.181Z,46.60
2018-07-17T14:34:37.775Z,46.90
2018-07-17T14:37:06.596Z,46.90
2018-07-17T14:39:35.353Z,46.80
2018-07-17T14:42:04.355Z,44.80
2018-07-17T14:44:33.102Z,44.00
2018-07-17T14:47:01.833Z,44.50
2018-07-17T14:49:30.621Z,44.80
2018-07-17T14:51:59.432Z,44.80
2018-07-17T14:54:28.253Z,44.20
2018-07-17T14:59:25.589Z,44.40
2018-07-17T15:01:54.291Z,45.50
2018-07-17T15:04:23.075Z,46.00
2018-07-17T15:06:52.152Z,44.60
2018-07-17T15:09:20.885Z,44.90
2018-07-17T15:11:49.628Z,44.20
2018-07-17T15:14:18.364Z,44.30
2018-07-17T15:19:15.472Z,45.80
2018-07-17T15:21:44.252Z,46.60
2018-07-17T15:24:12.995Z,46.60
2018-07-17T15:26:41.719Z,46.90
2018-07-17T15:29:10.440Z,47.80
2018-07-17T15:31:39.283Z,48.60
2018-07-17T15:34:08.023Z,47.70
2018-07-17T15:36:37.239Z,47.10
2018-07-17T15:39:08.415Z,45.60
2018-07-17T15:41:37.368Z,45.90
2018-07-17T15:44:06.117Z,46.60
2018-07-17T15:46:35.059Z,45.50
2018-07-17T15:49:03.824Z,47.30
2018-07-17T15:51:32.591Z,47.30
2018-07-17T15:54:01.384Z,47.00
2018-07-17T15:56:30.173Z,47.30
2018-07-17T15:58:58.943Z,47.20
2018-07-17T16:01:27.700Z,47.10
2018-07-17T16:03:56.488Z,46.50
2018-07-17T16:06:25.249Z,46.70
2018-07-17T16:08:54.169Z,46.50
2018-07-17T16:11:23.219Z,48.00
2018-07-17T16:13:52.122Z,47.50
2018-07-17T16:16:20.770Z,47.90
2018-07-17T16:18:49.548Z,47.70
2018-07-17T16:21:18.363Z,47.60
2018-07-17T16:23:47.070Z,48.20
2018-07-17T16:26:15.843Z,48.50
2018-07-17T16:28:44.872Z,49.30
2018-07-17T16:31:13.650Z,49.90
2018-07-17T16:33:42.395Z,48.50
2018-07-17T16:36:11.389Z,47.50
2018-07-17T16:38:40.202Z,47.10
2018-07-17T16:41:09.012Z,46.10
2018-07-17T16:43:37.739Z,45.40
2018-07-17T16:46:06.510Z,45.90
2018-07-17T16:48:35.307Z,46.10
2018-07-17T16:51:04.126Z,46.00
2018-07-17T16:53:32.903Z,46.80
2018-07-17T16:56:01.665Z,46.60
2018-07-17T16:58:30.403Z,46.90
2018-07-17T17:00:59.147Z,47.30
2018-07-17T17:03:27.913Z,48.20
2018-07-17T17:05:56.652Z,49.00
2018-07-17T17:08:25.640Z,50.10
2018-07-17T17:10:54.363Z,52.90
2018-07-17T17:13:23.124Z,56.80
2018-07-17T17:15:51.868Z,56.40
2018-07-17T17:18:20.647Z,56.40
2018-07-17T17:20:49.412Z,56.70
2018-07-17T17:23:18.149Z,55.80
2018-07-17T17:25:46.894Z,56.30
2018-07-17T17:28:15.663Z,55.70
2018-07-17T17:30:44.404Z,53.30
2018-07-17T17:33:13.143Z,55.30
2018-07-17T17:35:41.900Z,53.60
2018-07-17T17:38:10.952Z,54.90
2018-07-17T17:40:39.724Z,58.60
2018-07-17T17:43:08.479Z,60.30
2018-07-17T17:45:37.240Z,60.90
2018-07-17T17:48:06.703Z,61.40
2018-07-17T17:50:35.439Z,61.30
2018-07-17T17:53:04.195Z,61.20
2018-07-17T17:55:32.971Z,62.60
2018-07-17T17:58:01.734Z,62.70
2018-07-17T18:00:30.499Z,63.10
2018-07-17T18:02:59.219Z,63.30
2018-07-17T18:05:28.249Z,63.80
2018-07-17T18:07:57.058Z,64.60
2018-07-17T18:10:25.787Z,65.90
2018-07-17T18:12:54.519Z,66.80
2018-07-17T18:15:23.258Z,67.50
2018-07-17T18:17:52.331Z,68.70
2018-07-17T18:20:21.140Z,69.60
2018-07-17T18:22:49.905Z,70.50
2018-07-17T18:25:18.900Z,71.50
2018-07-17T18:27:47.648Z,72.50
2018-07-17T18:30:17.131Z,73.00
2018-07-17T18:32:46.144Z,73.70
2018-07-17T18:35:14.865Z,74.50
2018-07-17T18:37:43.727Z,75.50
2018-07-17T18:40:12.839Z,76.00
2018-07-17T18:42:41.588Z,76.50
2018-07-17T18:45:10.330Z,76.90
2018-07-17T18:47:39.456Z,77.40
2018-07-17T18:50:12.872Z,77.50
2018-07-17T18:52:37.027Z,78.70
2018-07-17T18:55:05.800Z,79.30
2018-07-17T18:57:34.899Z,79.90
2018-07-17T19:00:03.792Z,80.40
2018-07-17T19:02:32.627Z,81.40
2018-07-17T19:05:01.743Z,82.00
2018-07-17T19:07:30.514Z,82.80
2018-07-17T19:10:00.064Z,83.50
2018-07-17T19:12:28.871Z,84.30
2018-07-17T19:14:57.595Z,85.10
2018-07-17T19:17:26.457Z,85.50
2018-07-17T19:19:55.155Z,86.40
2018-07-17T19:22:24.280Z,86.90
2018-07-17T19:24:53.292Z,87.60
2018-07-17T19:27:22.027Z,88.30
2018-07-17T19:32:19.118Z,90.00
2018-07-17T19:34:47.863Z,90.30
2018-07-17T19:37:16.605Z,90.80
2018-07-17T19:39:45.704Z,91.30
2018-07-17T19:42:14.780Z,91.80
2018-07-17T19:44:43.806Z,92.40
2018-07-17T19:47:12.524Z,93.00
2018-07-17T19:49:41.312Z,93.40
2018-07-17T19:52:10.360Z,94.00
2018-07-17T19:54:39.110Z,94.50
2018-07-17T19:57:07.887Z,94.90
2018-07-17T19:59:36.975Z,95.50
2018-07-17T20:02:05.748Z,96.10
2018-07-17T20:04:34.461Z,96.50
2018-07-17T20:07:03.339Z,97.10
2018-07-17T20:09:32.863Z,97.60
2018-07-17T20:12:04.038Z,98.20
2018-07-17T20:14:33.572Z,98.90
2018-07-17T20:17:03.210Z,99.80
2018-07-17T20:19:32.869Z,99.90
2018-07-17T20:22:03.270Z,99.90
2018-07-17T20:24:33.308Z,99.90
2018-07-17T20:27:03.352Z,99.90
2018-07-17T20:29:34.406Z,99.90
2018-07-17T20:32:04.432Z,99.90
2018-07-17T20:34:34.324Z,99.90
2018-07-17T20:37:04.799Z,99.90
2018-07-17T20:39:34.204Z,99.90
2018-07-17T20:42:04.228Z,99.90
2018-07-17T20:44:34.225Z,99.90
2018-07-17T20:47:04.011Z,99.90
2018-07-17T20:49:37.088Z,99.90
2018-07-17T20:52:06.763Z,99.90
2018-07-17T20:54:36.039Z,99.90
2018-07-17T20:57:05.775Z,99.90
2018-07-17T20:59:36.448Z,99.90
2018-07-17T21:02:05.732Z,99.90
2018-07-17T21:04:36.545Z,99.90
2018-07-17T21:07:07.092Z,99.90
2018-07-17T21:09:37.224Z,99.90
2018-07-17T21:12:10.496Z,99.90
2018-07-17T21:14:40.915Z,99.90
2018-07-17T21:17:11.169Z,99.90
2018-07-17T21:19:40.776Z,99.90
2018-07-17T21:22:10.870Z,99.90
2018-07-17T21:24:40.766Z,99.90
2018-07-17T21:27:10.005Z,99.90
2018-07-17T21:29:40.310Z,99.90
2018-07-17T21:32:09.545Z,99.90
2018-07-17T21:34:38.725Z,99.90
2018-07-17T21:37:08.055Z,99.90
2018-07-17T21:39:36.702Z,99.90
2018-07-17T21:42:05.827Z,99.90
2018-07-17T21:44:34.469Z,99.90
2018-07-17T21:47:04.103Z,99.90
2018-07-17T21:49:32.946Z,99.90
2018-07-17T21:52:02.187Z,99.90
2018-07-17T21:54:31.175Z,99.90
2018-07-17T21:57:00.194Z,99.90
2018-07-17T21:59:29.153Z,99.90
2018-07-17T22:01:57.877Z,99.90
2018-07-17T22:04:26.622Z,99.90
2018-07-17T22:06:55.310Z,99.90
2018-07-17T22:09:24.328Z,99.90
2018-07-17T22:11:54.159Z,99.90
2018-07-17T22:14:22.891Z,99.90
2018-07-17T22:16:51.586Z,99.90
2018-07-17T22:19:20.514Z,99.90
2018-07-17T22:21:49.275Z,99.90
2018-07-17T22:24:18.590Z,99.90
2018-07-17T22:26:47.242Z,99.90
2018-07-17T22:29:15.947Z,99.90
2018-07-17T22:31:44.950Z,99.90
2018-07-17T22:34:14.222Z,99.90
2018-07-17T22:36:43.255Z,99.90
2018-07-17T22:39:11.996Z,99.90
2018-07-17T22:41:40.682Z,99.90
2018-07-17T22:44:09.702Z,99.90
2018-07-17T22:46:38.726Z,99.90
2018-07-17T22:49:07.690Z,99.90
2018-07-17T22:51:36.377Z,99.90
2018-07-17T22:54:05.074Z,99.90
2018-07-17T22:56:33.953Z,99.90
2018-07-17T22:59:02.742Z,99.90
2018-07-17T23:01:31.614Z,99.90
2018-07-17T23:04:00.430Z,99.90
2018-07-17T23:06:29.194Z,99.90
2018-07-17T23:08:58.534Z,99.90
2018-07-17T23:11:27.373Z,99.90
2018-07-17T23:13:56.154Z,99.90
2018-07-17T23:16:24.950Z,99.90
2018-07-17T23:18:54.010Z,99.90
2018-07-17T23:21:22.754Z,99.90
2018-07-17T23:23:51.575Z,99.90
2018-07-17T23:26:20.352Z,99.90
2018-07-17T23:28:49.129Z,99.90
2018-07-17T23:31:18.413Z,99.90
2018-07-17T23:33:47.202Z,99.90
2018-07-17T23:36:15.991Z,99.90
2018-07-17T23:38:44.802Z,99.90
2018-07-17T23:41:13.606Z,99.90
2018-07-17T23:43:42.398Z,99.90
2018-07-17T23:46:11.186Z,99.90
2018-07-17T23:48:39.999Z,99.90
2018-07-17T23:51:08.799Z,99.90
2018-07-17T23:53:37.594Z,99.90
2018-07-17T23:56:06.394Z,99.90
2018-07-17T23:58:35.191Z,99.90
